createdAt,value
2023-08-26T00:00:55.165Z,100.00
2023-08-26T00:02:57.921Z,100.00
2023-08-26T00:05:02.024Z,100.00
2023-08-26T00:07:07.905Z,100.00
2023-08-26T00:09:11.959Z,100.00
2023-08-26T00:11:15.812Z,100.00
2023-08-26T00:13:20.206Z,100.00
2023-08-26T00:15:24.842Z,100.00
2023-08-26T00:17:28.740Z,100.00
2023-08-26T00:19:32.749Z,100.00
2023-08-26T00:21:36.888Z,100.00
2023-08-26T00:23:42.276Z,100.00
2023-08-26T00:25:46.478Z,100.00
2023-08-26T00:27:49.238Z,100.00
2023-08-26T00:29:52.942Z,100.00
2023-08-26T00:31:56.652Z,100.00
2023-08-26T00:34:04.234Z,100.00
2023-08-26T00:36:07.056Z,100.00
2023-08-26T00:38:10.890Z,100.00
2023-08-26T00:40:16.262Z,100.00
2023-08-26T00:42:18.981Z,100.00
2023-08-26T00:44:24.017Z,100.00
2023-08-26T00:46:28.075Z,100.00
2023-08-26T00:48:32.550Z,100.00
2023-08-26T00:50:36.404Z,100.00
2023-08-26T00:52:41.221Z,100.00
2023-08-26T00:54:45.037Z,100.00
2023-08-26T00:56:50.585Z,100.00
2023-08-26T00:58:54.777Z,100.00
2023-08-26T01:00:59.204Z,100.00
2023-08-26T01:03:01.856Z,100.00
2023-08-26T01:05:08.859Z,100.00
2023-08-26T01:07:12.546Z,100.00
2023-08-26T01:09:16.384Z,100.00
2023-08-26T01:11:25.995Z,100.00
2023-08-26T01:13:41.185Z,100.00
2023-08-26T01:15:48.246Z,100.00
2023-08-26T01:17:53.852Z,100.00
2023-08-26T01:19:59.695Z,100.00
2023-08-26T01:22:07.494Z,100.00
2023-08-26T01:24:14.151Z,100.00
2023-08-26T01:26:17.686Z,100.00
2023-08-26T01:28:21.815Z,100.00
2023-08-26T01:30:29.942Z,100.00
2023-08-26T01:32:39.943Z,100.00
2023-08-26T01:34:48.839Z,100.00
2023-08-26T01:36:54.983Z,100.00
2023-08-26T01:38:59.611Z,100.00
2023-08-26T01:41:04.972Z,100.00
2023-08-26T01:43:10.214Z,100.00
2023-08-26T01:45:14.288Z,100.00
2023-08-26T01:47:18.924Z,100.00
2023-08-26T01:49:22.355Z,100.00
2023-08-26T01:51:25.991Z,100.00
2023-08-26T01:53:29.403Z,100.00
2023-08-26T01:55:32.740Z,100.00
2023-08-26T01:57:37.603Z,100.00
2023-08-26T01:59:41.006Z,100.00
2023-08-26T02:01:43.587Z,100.00
2023-08-26T02:03:47.209Z,100.00
2023-08-26T02:05:50.655Z,100.00
2023-08-26T02:07:54.257Z,100.00
2023-08-26T02:09:58.127Z,100.00
2023-08-26T02:12:01.530Z,100.00
2023-08-26T02:14:06.776Z,100.00
2023-08-26T02:16:10.058Z,100.00
2023-08-26T02:18:13.585Z,100.00
2023-08-26T02:20:16.212Z,100.00
2023-08-26T02:22:19.836Z,100.00
2023-08-26T02:24:23.227Z,100.00
2023-08-26T02:26:26.658Z,100.00
2023-08-26T02:28:30.632Z,100.00
2023-08-26T02:30:35.645Z,100.00
2023-08-26T02:32:39.266Z,100.00
2023-08-26T02:34:42.664Z,100.00
2023-08-26T02:36:46.041Z,100.00
2023-08-26T02:38:49.393Z,100.00
2023-08-26T02:40:56.302Z,100.00
2023-08-26T02:42:58.696Z,100.00
2023-08-26T02:45:02.565Z,100.00
2023-08-26T02:47:08.947Z,100.00
2023-08-26T02:49:12.763Z,100.00
2023-08-26T02:51:16.174Z,100.00
2023-08-26T02:53:18.598Z,100.00
2023-08-26T02:55:22.798Z,100.00
2023-08-26T02:57:27.733Z,100.00
2023-08-26T02:59:31.356Z,100.00
2023-08-26T03:01:34.768Z,100.00
2023-08-26T03:03:39.768Z,100.00
2023-08-26T03:05:43.478Z,100.00
2023-08-26T03:07:47.005Z,100.00
2023-08-26T03:09:50.388Z,100.00
2023-08-26T03:11:54.170Z,100.00
2023-08-26T03:13:58.416Z,100.00
2023-08-26T03:16:09.173Z,100.00
2023-08-26T03:18:12.871Z,100.00
2023-08-26T03:20:17.730Z,100.00
2023-08-26T03:22:21.578Z,100.00
2023-08-26T03:24:25.000Z,100.00
2023-08-26T03:26:28.506Z,100.00
2023-08-26T03:28:32.242Z,100.00
2023-08-26T03:30:38.608Z,100.00
2023-08-26T03:32:43.374Z,100.00
2023-08-26T03:34:47.126Z,100.00
2023-08-26T03:36:52.135Z,100.00
2023-08-26T03:38:56.384Z,100.00
2023-08-26T03:41:00.172Z,100.00
2023-08-26T03:43:04.153Z,100.00
2023-08-26T03:45:08.844Z,100.00
2023-08-26T03:47:12.275Z,100.00
2023-08-26T03:49:16.290Z,100.00
2023-08-26T03:51:20.267Z,100.00
2023-08-26T03:53:25.410Z,100.00
2023-08-26T03:55:37.888Z,100.00
2023-08-26T03:57:41.350Z,100.00
2023-08-26T03:59:45.338Z,100.00
2023-08-26T04:01:48.656Z,100.00
2023-08-26T04:03:53.457Z,100.00
2023-08-26T04:06:00.828Z,100.00
2023-08-26T04:08:05.676Z,100.00
2023-08-26T04:10:11.830Z,100.00
2023-08-26T04:12:15.579Z,100.00
2023-08-26T04:14:18.971Z,100.00
2023-08-26T04:16:22.788Z,100.00
2023-08-26T04:18:26.462Z,100.00
2023-08-26T04:20:29.878Z,100.00
2023-08-26T04:22:33.223Z,100.00
2023-08-26T04:24:36.554Z,100.00
2023-08-26T04:26:41.334Z,100.00
2023-08-26T04:28:44.626Z,100.00
2023-08-26T04:30:48.849Z,100.00
2023-08-26T04:32:52.255Z,100.00
2023-08-26T04:34:54.597Z,100.00
2023-08-26T04:36:57.961Z,100.00
2023-08-26T04:39:01.354Z,100.00
2023-08-26T04:41:04.836Z,100.00
2023-08-26T04:43:09.804Z,100.00
2023-08-26T04:45:15.817Z,100.00
2023-08-26T04:47:23.549Z,100.00
2023-08-26T04:49:27.438Z,100.00
2023-08-26T04:51:30.812Z,100.00
2023-08-26T04:53:35.156Z,100.00
2023-08-26T04:55:39.645Z,100.00
2023-08-26T04:57:43.005Z,100.00
2023-08-26T04:59:47.895Z,100.00
2023-08-26T05:01:51.066Z,100.00
2023-08-26T05:03:54.921Z,100.00
2023-08-26T05:05:58.904Z,100.00
2023-08-26T05:08:02.222Z,100.00
2023-08-26T05:10:06.460Z,100.00
2023-08-26T05:12:09.775Z,100.00
2023-08-26T05:14:13.615Z,100.00
2023-08-26T05:16:18.477Z,100.00
2023-08-26T05:18:22.574Z,100.00
2023-08-26T05:20:25.959Z,100.00
2023-08-26T05:22:29.432Z,100.00
2023-08-26T05:24:34.040Z,100.00
2023-08-26T05:26:38.642Z,100.00
2023-08-26T05:28:44.234Z,100.00
2023-08-26T05:30:47.753Z,100.00
2023-08-26T05:32:53.462Z,100.00
2023-08-26T05:34:57.111Z,100.00
2023-08-26T05:36:59.579Z,100.00
2023-08-26T05:39:02.913Z,100.00
2023-08-26T05:41:06.313Z,100.00
2023-08-26T05:43:09.674Z,100.00
2023-08-26T05:45:13.885Z,100.00
2023-08-26T05:47:17.350Z,100.00
2023-08-26T05:49:22.140Z,100.00
2023-08-26T05:51:26.257Z,100.00
2023-08-26T05:53:31.175Z,100.00
2023-08-26T05:55:34.735Z,100.00
2023-08-26T05:57:38.344Z,100.00
2023-08-26T05:59:42.089Z,100.00
2023-08-26T06:01:45.894Z,100.00
2023-08-26T06:03:49.412Z,100.00
2023-08-26T06:05:54.231Z,100.00
2023-08-26T06:07:57.820Z,100.00
2023-08-26T06:10:01.592Z,100.00
2023-08-26T06:12:05.870Z,100.00
2023-08-26T06:14:09.190Z,100.00
2023-08-26T06:16:13.133Z,100.00
2023-08-26T06:18:16.619Z,100.00
2023-08-26T06:20:20.069Z,100.00
2023-08-26T06:22:25.227Z,100.00
2023-08-26T06:24:29.237Z,100.00
2023-08-26T06:26:33.884Z,100.00
2023-08-26T06:28:37.320Z,100.00
2023-08-26T06:30:39.785Z,100.00
2023-08-26T06:32:43.463Z,100.00
2023-08-26T06:34:48.695Z,100.00
2023-08-26T06:36:54.082Z,100.00
2023-08-26T06:38:58.870Z,100.00
2023-08-26T06:41:02.297Z,100.00
2023-08-26T06:43:07.887Z,100.00
2023-08-26T06:45:12.831Z,100.00
2023-08-26T06:47:17.059Z,100.00
2023-08-26T06:49:20.960Z,100.00
2023-08-26T06:51:24.797Z,100.00
2023-08-26T06:53:28.936Z,100.00
2023-08-26T06:55:33.041Z,100.00
2023-08-26T06:57:36.858Z,100.00
2023-08-26T06:59:40.453Z,100.00
2023-08-26T07:01:45.473Z,100.00
2023-08-26T07:03:49.030Z,100.00
2023-08-26T07:05:53.124Z,100.00
2023-08-26T07:07:57.084Z,100.00
2023-08-26T07:10:01.103Z,100.00
2023-08-26T07:12:06.820Z,100.00
2023-08-26T07:14:10.385Z,100.00
2023-08-26T07:16:14.105Z,100.00
2023-08-26T07:18:20.322Z,100.00
2023-08-26T07:20:25.895Z,100.00
2023-08-26T07:22:30.769Z,100.00
2023-08-26T07:24:34.803Z,100.00
2023-08-26T07:26:38.966Z,100.00
2023-08-26T07:28:45.512Z,100.00
2023-08-26T07:30:49.676Z,100.00
2023-08-26T07:32:53.508Z,100.00
2023-08-26T07:34:57.793Z,100.00
2023-08-26T07:37:01.640Z,100.00
2023-08-26T07:39:05.689Z,100.00
2023-08-26T07:41:09.347Z,100.00
2023-08-26T07:43:13.452Z,100.00
2023-08-26T07:45:19.141Z,100.00
2023-08-26T07:47:23.547Z,100.00
2023-08-26T07:49:28.034Z,100.00
2023-08-26T07:51:32.630Z,100.00
2023-08-26T07:53:36.866Z,100.00
2023-08-26T07:55:41.101Z,100.00
2023-08-26T07:57:45.145Z,100.00
2023-08-26T07:59:49.175Z,100.00
2023-08-26T08:01:55.634Z,100.00
2023-08-26T08:04:00.405Z,100.00
2023-08-26T08:06:05.460Z,100.00
2023-08-26T08:08:09.558Z,100.00
2023-08-26T08:10:13.771Z,100.00
2023-08-26T08:12:18.121Z,100.00
2023-08-26T08:14:22.373Z,100.00
2023-08-26T08:16:28.633Z,100.00
2023-08-26T08:18:34.732Z,100.00
2023-08-26T08:20:39.257Z,100.00
2023-08-26T08:22:44.816Z,100.00
2023-08-26T08:24:49.745Z,100.00
2023-08-26T08:26:54.453Z,100.00
2023-08-26T08:28:57.473Z,100.00
2023-08-26T08:31:01.947Z,100.00
2023-08-26T08:33:07.266Z,100.00
2023-08-26T08:35:13.254Z,100.00
2023-08-26T08:37:17.770Z,100.00
2023-08-26T08:39:21.862Z,100.00
2023-08-26T08:41:25.993Z,100.00
2023-08-26T08:43:32.830Z,100.00
2023-08-26T08:45:37.990Z,100.00
2023-08-26T08:47:42.189Z,100.00
2023-08-26T08:49:47.166Z,100.00
2023-08-26T08:51:54.099Z,100.00
2023-08-26T08:53:58.677Z,100.00
2023-08-26T08:56:03.248Z,100.00
2023-08-26T08:58:09.738Z,100.00
2023-08-26T09:00:15.921Z,100.00
2023-08-26T09:02:20.138Z,100.00
2023-08-26T09:04:24.890Z,100.00
2023-08-26T09:06:29.335Z,100.00
2023-08-26T09:08:35.160Z,100.00
2023-08-26T09:10:40.380Z,100.00
2023-08-26T09:12:45.093Z,100.00
2023-08-26T09:14:48.919Z,100.00
2023-08-26T09:16:53.345Z,100.00
2023-08-26T09:19:00.952Z,100.00
2023-08-26T09:21:10.997Z,100.00
2023-08-26T09:23:16.032Z,100.00
2023-08-26T09:25:22.036Z,100.00
2023-08-26T09:27:26.445Z,100.00
2023-08-26T09:29:30.786Z,100.00
2023-08-26T09:31:47.077Z,100.00
2023-08-26T09:33:53.218Z,100.00
2023-08-26T09:38:04.029Z,100.00
2023-08-26T09:40:09.553Z,100.00
2023-08-26T09:42:15.534Z,100.00
2023-08-26T09:44:22.629Z,100.00
2023-08-26T09:46:26.810Z,100.00
2023-08-26T09:48:31.162Z,100.00
2023-08-26T09:50:35.841Z,100.00
2023-08-26T09:52:48.619Z,100.00
2023-08-26T09:54:55.981Z,100.00
2023-08-26T09:57:00.300Z,100.00
2023-08-26T09:59:06.395Z,100.00
2023-08-26T10:01:10.976Z,100.00
2023-08-26T10:03:15.613Z,100.00
2023-08-26T10:05:21.156Z,100.00
2023-08-26T10:07:26.209Z,100.00
2023-08-26T10:09:37.743Z,100.00
2023-08-26T10:11:46.468Z,100.00
2023-08-26T10:13:56.594Z,100.00
2023-08-26T10:16:05.918Z,100.00
2023-08-26T10:18:15.080Z,100.00
2023-08-26T10:20:19.526Z,100.00
2023-08-26T10:22:25.000Z,100.00
2023-08-26T10:24:30.661Z,100.00
2023-08-26T10:26:35.360Z,100.00
2023-08-26T10:28:40.913Z,100.00
2023-08-26T10:30:45.688Z,100.00
2023-08-26T10:33:02.276Z,100.00
2023-08-26T10:35:14.407Z,100.00
2023-08-26T10:37:20.611Z,100.00
2023-08-26T10:39:26.717Z,100.00
2023-08-26T10:41:31.022Z,100.00
2023-08-26T10:43:36.163Z,100.00
2023-08-26T10:45:50.938Z,100.00
2023-08-26T10:47:57.677Z,100.00
2023-08-26T10:50:19.843Z,100.00
2023-08-26T10:52:33.151Z,100.00
2023-08-26T10:54:37.564Z,100.00
2023-08-26T10:56:42.971Z,100.00
2023-08-26T10:58:50.598Z,100.00
2023-08-26T11:00:55.960Z,100.00
2023-08-26T11:03:04.655Z,100.00
2023-08-26T11:05:10.289Z,100.00
2023-08-26T11:07:18.630Z,100.00
2023-08-26T11:09:22.477Z,100.00
2023-08-26T11:11:27.353Z,99.34
2023-08-26T11:13:30.368Z,98.75
2023-08-26T11:15:39.101Z,98.59
2023-08-26T11:17:51.669Z,96.51
2023-08-26T11:19:58.905Z,96.35
2023-08-26T11:22:05.423Z,96.39
2023-08-26T11:24:10.149Z,95.87
2023-08-26T11:26:22.569Z,95.39
2023-08-26T11:28:28.690Z,94.31
2023-08-26T11:30:33.153Z,93.63
2023-08-26T11:32:39.421Z,93.72
2023-08-26T11:34:43.873Z,94.13
2023-08-26T11:36:49.292Z,93.28
2023-08-26T11:38:55.113Z,93.19
2023-08-26T11:40:59.336Z,93.26
2023-08-26T11:43:08.058Z,93.43
2023-08-26T11:45:13.190Z,93.12
2023-08-26T11:47:18.020Z,91.77
2023-08-26T11:49:22.499Z,89.62
2023-08-26T11:51:32.059Z,90.24
2023-08-26T11:53:39.708Z,89.80
2023-08-26T11:55:44.037Z,90.35
2023-08-26T11:57:53.016Z,90.71
2023-08-26T12:00:08.698Z,90.03
2023-08-26T12:02:26.555Z,87.83
2023-08-26T12:04:31.005Z,87.76
2023-08-26T12:06:36.406Z,86.94
2023-08-26T12:08:42.279Z,85.47
2023-08-26T12:10:50.422Z,84.24
2023-08-26T12:13:06.021Z,82.89
2023-08-26T12:15:13.115Z,82.81
2023-08-26T12:17:19.686Z,82.50
2023-08-26T12:19:25.942Z,81.88
2023-08-26T12:21:33.251Z,81.49
2023-08-26T12:23:41.852Z,80.55
2023-08-26T12:25:46.925Z,79.83
2023-08-26T12:27:51.545Z,80.14
2023-08-26T12:29:56.781Z,79.47
2023-08-26T12:32:01.118Z,80.09
2023-08-26T12:34:06.133Z,81.09
2023-08-26T12:36:11.677Z,82.33
2023-08-26T12:38:16.644Z,83.13
2023-08-26T12:40:24.277Z,83.54
2023-08-26T12:42:29.137Z,83.44
2023-08-26T12:44:33.806Z,83.93
2023-08-26T12:46:39.253Z,84.29
2023-08-26T12:48:54.206Z,84.67
2023-08-26T12:51:00.623Z,84.83
2023-08-26T12:53:05.728Z,85.16
2023-08-26T12:55:13.284Z,84.92
2023-08-26T12:57:20.111Z,83.97
2023-08-26T12:59:24.900Z,83.41
2023-08-26T13:01:29.048Z,83.02
2023-08-26T13:03:34.012Z,82.74
2023-08-26T13:05:38.672Z,82.68
2023-08-26T13:07:43.595Z,85.15
2023-08-26T13:09:50.090Z,87.32
2023-08-26T13:11:55.629Z,90.16
2023-08-26T13:14:02.764Z,91.90
2023-08-26T13:16:11.085Z,93.87
2023-08-26T13:18:17.066Z,95.25
2023-08-26T13:20:23.811Z,96.83
2023-08-26T13:22:29.695Z,98.88
2023-08-26T13:24:34.719Z,99.39
2023-08-26T13:26:39.267Z,99.49
2023-08-26T13:28:45.019Z,98.77
2023-08-26T13:30:51.946Z,98.52
2023-08-26T13:32:56.916Z,97.35
2023-08-26T13:35:01.384Z,95.82
2023-08-26T13:37:06.304Z,95.82
2023-08-26T13:39:10.595Z,94.49
2023-08-26T13:41:15.081Z,93.45
2023-08-26T13:43:20.254Z,93.79
2023-08-26T13:45:25.708Z,94.32
2023-08-26T13:47:31.639Z,94.37
2023-08-26T13:49:36.702Z,94.76
2023-08-26T13:51:41.329Z,94.41
2023-08-26T13:53:46.669Z,95.01
2023-08-26T13:55:56.572Z,94.49
2023-08-26T13:58:01.549Z,94.34
2023-08-26T14:00:05.635Z,92.88
2023-08-26T14:02:17.390Z,92.56
2023-08-26T14:04:27.205Z,93.28
2023-08-26T14:06:31.856Z,93.84
2023-08-26T14:08:37.402Z,94.34
2023-08-26T14:10:45.359Z,94.98
2023-08-26T14:12:50.870Z,95.02
2023-08-26T14:14:55.488Z,94.13
2023-08-26T14:17:00.427Z,93.45
2023-08-26T14:19:06.147Z,92.48
2023-08-26T14:21:13.765Z,90.45
2023-08-26T14:23:20.017Z,90.26
2023-08-26T14:25:26.016Z,89.45
2023-08-26T14:27:30.807Z,88.99
2023-08-26T14:29:35.493Z,87.83
2023-08-26T14:31:41.040Z,85.93
2023-08-26T14:33:45.935Z,84.03
2023-08-26T14:35:53.696Z,82.67
2023-08-26T14:38:00.329Z,82.95
2023-08-26T14:40:08.738Z,82.98
2023-08-26T14:42:14.622Z,82.87
2023-08-26T14:44:21.674Z,83.53
2023-08-26T14:46:26.315Z,84.04
2023-08-26T14:48:31.589Z,83.92
2023-08-26T14:50:39.773Z,83.93
2023-08-26T14:52:46.107Z,83.75
2023-08-26T14:54:52.451Z,82.82
2023-08-26T14:56:59.274Z,81.80
2023-08-26T14:59:04.384Z,82.12
2023-08-26T15:01:09.330Z,81.51
2023-08-26T15:03:14.344Z,81.10
2023-08-26T15:05:19.799Z,81.21
2023-08-26T15:07:25.017Z,81.03
2023-08-26T15:09:30.770Z,80.63
2023-08-26T15:11:37.288Z,80.31
2023-08-26T15:13:43.819Z,79.77
2023-08-26T15:15:48.872Z,78.67
2023-08-26T15:17:54.395Z,78.51
2023-08-26T15:20:01.327Z,77.64
2023-08-26T15:22:07.001Z,77.59
2023-08-26T15:24:12.114Z,77.45
2023-08-26T15:26:19.683Z,77.37
2023-08-26T15:28:25.807Z,77.39
2023-08-26T15:30:31.414Z,77.28
2023-08-26T15:32:36.411Z,76.38
2023-08-26T15:34:41.206Z,76.28
2023-08-26T15:36:45.654Z,76.02
2023-08-26T15:38:50.448Z,76.73
2023-08-26T15:40:54.145Z,75.50
2023-08-26T15:42:59.357Z,76.28
2023-08-26T15:45:06.335Z,75.52
2023-08-26T15:47:15.463Z,75.21
2023-08-26T15:49:20.877Z,74.37
2023-08-26T15:51:27.492Z,74.47
2023-08-26T15:53:33.244Z,74.31
2023-08-26T15:55:41.549Z,74.03
2023-08-26T15:57:46.797Z,73.81
2023-08-26T15:59:52.352Z,74.32
2023-08-26T16:01:58.395Z,74.50
2023-08-26T16:04:03.248Z,74.18
2023-08-26T16:06:10.326Z,74.75
2023-08-26T16:08:15.133Z,74.58
2023-08-26T16:10:21.056Z,74.47
2023-08-26T16:12:31.058Z,74.98
2023-08-26T16:14:36.756Z,74.68
2023-08-26T16:16:42.063Z,75.35
2023-08-26T16:18:48.138Z,75.10
2023-08-26T16:20:53.270Z,75.13
2023-08-26T16:23:00.050Z,75.13
2023-08-26T16:25:05.818Z,75.59
2023-08-26T16:27:11.988Z,76.40
2023-08-26T16:29:16.304Z,77.53
2023-08-26T16:31:19.782Z,79.17
2023-08-26T16:33:26.498Z,80.55
2023-08-26T16:35:36.686Z,81.87
2023-08-26T16:37:42.830Z,82.53
2023-08-26T16:39:46.350Z,83.41
2023-08-26T16:41:51.161Z,84.73
2023-08-26T16:43:55.716Z,86.17
2023-08-26T16:46:01.004Z,87.88
2023-08-26T16:48:06.170Z,89.37
2023-08-26T16:50:10.943Z,90.72
2023-08-26T16:52:16.756Z,91.97
2023-08-26T16:54:21.359Z,93.36
2023-08-26T16:56:27.402Z,94.49
2023-08-26T16:58:34.609Z,95.77
2023-08-26T17:00:39.433Z,97.03
2023-08-26T17:02:43.561Z,97.91
2023-08-26T17:04:56.405Z,97.64
2023-08-26T17:07:05.568Z,98.56
2023-08-26T17:09:17.865Z,98.86
2023-08-26T17:11:32.219Z,100.00
2023-08-26T17:13:37.282Z,100.00
2023-08-26T17:15:41.622Z,100.00
2023-08-26T17:17:46.122Z,100.00
2023-08-26T17:19:50.676Z,100.00
2023-08-26T17:21:56.427Z,100.00
2023-08-26T17:24:00.775Z,100.00
2023-08-26T17:26:07.556Z,100.00
2023-08-26T17:28:12.332Z,100.00
2023-08-26T17:30:16.923Z,100.00
2023-08-26T17:32:22.563Z,100.00
2023-08-26T17:34:26.917Z,100.00
2023-08-26T17:36:32.519Z,100.00
2023-08-26T17:38:37.045Z,100.00
2023-08-26T17:40:52.258Z,100.00
2023-08-26T17:42:58.423Z,100.00
2023-08-26T17:45:05.404Z,100.00
2023-08-26T17:47:09.832Z,100.00
2023-08-26T17:49:14.247Z,100.00
2023-08-26T17:51:19.443Z,100.00
2023-08-26T17:53:28.832Z,100.00
2023-08-26T17:55:37.192Z,100.00
2023-08-26T17:57:46.730Z,100.00
2023-08-26T17:59:56.629Z,100.00
2023-08-26T18:02:01.708Z,100.00
2023-08-26T18:04:07.038Z,100.00
2023-08-26T18:06:13.701Z,100.00
2023-08-26T18:08:28.359Z,100.00
2023-08-26T18:10:41.316Z,100.00
2023-08-26T18:12:52.032Z,100.00
2023-08-26T18:15:02.253Z,100.00
2023-08-26T18:17:07.702Z,100.00
2023-08-26T18:19:13.831Z,100.00
2023-08-26T18:21:18.833Z,100.00
2023-08-26T18:23:23.206Z,100.00
2023-08-26T18:25:28.302Z,100.00
2023-08-26T18:27:33.683Z,100.00
2023-08-26T18:29:41.746Z,100.00
2023-08-26T18:31:49.425Z,100.00
2023-08-26T18:33:57.550Z,100.00
2023-08-26T18:36:09.517Z,100.00
2023-08-26T18:38:22.781Z,100.00
2023-08-26T18:40:27.891Z,100.00
2023-08-26T18:42:33.838Z,100.00
2023-08-26T18:44:39.588Z,100.00
2023-08-26T18:46:46.567Z,100.00
2023-08-26T18:48:56.760Z,100.00
2023-08-26T18:51:03.911Z,100.00
2023-08-26T18:53:09.896Z,100.00
2023-08-26T18:55:14.109Z,100.00
2023-08-26T18:57:19.311Z,100.00
2023-08-26T18:59:23.733Z,100.00
2023-08-26T19:01:28.406Z,100.00
2023-08-26T19:03:33.811Z,100.00
2023-08-26T19:05:45.662Z,100.00
2023-08-26T19:07:52.471Z,100.00
2023-08-26T19:09:57.993Z,100.00
2023-08-26T19:12:04.223Z,100.00
2023-08-26T19:14:09.855Z,100.00
2023-08-26T19:16:14.317Z,100.00
2023-08-26T19:18:26.182Z,100.00
2023-08-26T19:20:42.332Z,100.00
2023-08-26T19:22:49.880Z,100.00
2023-08-26T19:24:56.859Z,100.00
2023-08-26T19:27:03.143Z,100.00
2023-08-26T19:29:08.669Z,100.00
2023-08-26T19:31:12.305Z,100.00
2023-08-26T19:33:17.658Z,100.00
2023-08-26T19:35:23.588Z,100.00
2023-08-26T19:37:30.874Z,100.00
2023-08-26T19:39:34.984Z,100.00
2023-08-26T19:41:40.781Z,100.00
2023-08-26T19:43:47.689Z,100.00
2023-08-26T19:45:52.441Z,100.00
2023-08-26T19:48:07.540Z,100.00
2023-08-26T19:50:16.392Z,100.00
2023-08-26T19:52:21.813Z,100.00
2023-08-26T19:54:28.772Z,100.00
2023-08-26T19:56:32.893Z,100.00
2023-08-26T19:58:40.084Z,100.00
2023-08-26T20:00:44.793Z,100.00
2023-08-26T20:02:51.081Z,100.00
2023-08-26T20:04:56.932Z,100.00
2023-08-26T20:07:01.761Z,100.00
2023-08-26T20:09:06.984Z,100.00
2023-08-26T20:11:13.681Z,100.00
2023-08-26T20:13:18.262Z,100.00
2023-08-26T20:15:22.625Z,100.00
2023-08-26T20:17:27.251Z,100.00
2023-08-26T20:19:32.250Z,100.00
2023-08-26T20:21:37.653Z,100.00
2023-08-26T20:23:43.351Z,100.00
2023-08-26T20:25:48.309Z,100.00
2023-08-26T20:27:55.312Z,100.00
2023-08-26T20:30:00.334Z,100.00
2023-08-26T20:32:05.039Z,100.00
2023-08-26T20:34:09.238Z,100.00
2023-08-26T20:36:14.894Z,100.00
2023-08-26T20:38:19.624Z,100.00
2023-08-26T20:40:27.080Z,100.00
2023-08-26T20:42:34.139Z,100.00
2023-08-26T20:44:40.471Z,100.00
2023-08-26T20:46:45.049Z,100.00
2023-08-26T20:48:49.447Z,100.00
2023-08-26T20:50:52.794Z,100.00
2023-08-26T20:52:58.296Z,100.00
2023-08-26T20:55:04.680Z,100.00
2023-08-26T20:57:12.612Z,100.00
2023-08-26T20:59:18.941Z,100.00
2023-08-26T21:01:25.068Z,100.00
2023-08-26T21:03:29.999Z,100.00
2023-08-26T21:05:34.437Z,100.00
2023-08-26T21:07:38.814Z,100.00
2023-08-26T21:09:46.841Z,100.00
2023-08-26T21:11:52.173Z,100.00
2023-08-26T21:13:56.992Z,100.00
2023-08-26T21:16:01.545Z,100.00
2023-08-26T21:18:08.057Z,100.00
2023-08-26T21:20:14.357Z,100.00
2023-08-26T21:22:21.109Z,100.00
2023-08-26T21:24:25.572Z,100.00
2023-08-26T21:26:30.615Z,100.00
2023-08-26T21:28:36.063Z,100.00
2023-08-26T21:30:40.444Z,100.00
2023-08-26T21:32:45.272Z,100.00
2023-08-26T21:34:51.373Z,100.00
2023-08-26T21:36:55.921Z,100.00
2023-08-26T21:39:00.760Z,100.00
2023-08-26T21:41:09.574Z,100.00
2023-08-26T21:43:14.806Z,100.00
2023-08-26T21:45:19.661Z,100.00
2023-08-26T21:47:24.396Z,100.00
2023-08-26T21:49:31.451Z,100.00
2023-08-26T21:51:37.725Z,100.00
2023-08-26T21:53:42.451Z,100.00
2023-08-26T21:55:53.262Z,100.00
2023-08-26T21:58:05.637Z,100.00
2023-08-26T22:00:14.279Z,100.00
2023-08-26T22:02:18.767Z,100.00
2023-08-26T22:04:23.278Z,100.00
2023-08-26T22:06:28.230Z,100.00
2023-08-26T22:08:35.128Z,100.00
2023-08-26T22:10:40.872Z,100.00
2023-08-26T22:12:45.461Z,100.00
2023-08-26T22:14:49.757Z,100.00
2023-08-26T22:16:54.530Z,100.00
2023-08-26T22:19:02.514Z,100.00
2023-08-26T22:21:08.534Z,100.00
2023-08-26T22:23:13.062Z,100.00
2023-08-26T22:25:20.271Z,100.00
2023-08-26T22:27:24.753Z,100.00
2023-08-26T22:29:30.061Z,100.00
2023-08-26T22:31:34.818Z,100.00
2023-08-26T22:33:42.269Z,100.00
2023-08-26T22:35:48.480Z,100.00
2023-08-26T22:37:52.844Z,100.00
2023-08-26T22:39:56.313Z,100.00
2023-08-26T22:42:02.312Z,100.00
2023-08-26T22:44:08.802Z,100.00
2023-08-26T22:46:15.020Z,100.00
2023-08-26T22:48:20.394Z,100.00
2023-08-26T22:50:25.330Z,100.00
2023-08-26T22:52:29.451Z,100.00
2023-08-26T22:54:34.896Z,100.00
2023-08-26T22:56:41.459Z,100.00
2023-08-26T22:58:47.889Z,100.00
2023-08-26T23:00:52.597Z,100.00
2023-08-26T23:02:58.075Z,100.00
2023-08-26T23:05:03.114Z,100.00
2023-08-26T23:07:08.443Z,100.00
2023-08-26T23:09:12.864Z,100.00
2023-08-26T23:11:19.469Z,100.00
2023-08-26T23:13:23.668Z,100.00
2023-08-26T23:15:29.531Z,100.00
2023-08-26T23:17:34.019Z,100.00
2023-08-26T23:19:39.118Z,100.00
2023-08-26T23:21:43.575Z,100.00
2023-08-26T23:23:48.820Z,100.00
2023-08-26T23:25:53.592Z,100.00
2023-08-26T23:27:58.224Z,100.00
2023-08-26T23:30:03.131Z,100.00
2023-08-26T23:32:13.647Z,100.00
2023-08-26T23:34:19.521Z,100.00
2023-08-26T23:36:24.744Z,100.00
2023-08-26T23:38:29.440Z,100.00
2023-08-26T23:40:34.284Z,100.00
2023-08-26T23:42:39.733Z,100.00
2023-08-26T23:44:44.162Z,100.00
2023-08-26T23:46:48.263Z,100.00
2023-08-26T23:48:54.162Z,100.00
2023-08-26T23:50:59.085Z,100.00
2023-08-26T23:53:03.857Z,100.00
2023-08-26T23:55:07.621Z,100.00
2023-08-26T23:57:12.087Z,100.00
2023-08-26T23:59:16.573Z,100.00
